createdAt,value
2022-12-29T00:00:18.711Z,53.97
2022-12-29T00:03:22.562Z,54.06
2022-12-29T00:06:44.806Z,54.01
2022-12-29T00:09:48.770Z,54.19
2022-12-29T00:13:10.978Z,54.56
2022-12-29T00:16:14.907Z,54.99
2022-12-29T00:19:36.660Z,55.37
2022-12-29T00:23:00.126Z,55.07
2022-12-29T00:26:24.477Z,55.28
2022-12-29T00:30:01.581Z,55.88
2022-12-29T00:33:55.345Z,54.68
2022-12-29T00:37:00.618Z,54.09
2022-12-29T00:40:23.369Z,54.32
2022-12-29T00:43:45.778Z,54.07
2022-12-29T00:47:07.576Z,53.66
2022-12-29T00:50:31.040Z,53.63
2022-12-29T00:53:34.597Z,54.04
2022-12-29T00:56:39.158Z,54.06
2022-12-29T00:59:44.393Z,53.98
2022-12-29T01:02:47.921Z,53.81
2022-12-29T01:05:53.673Z,53.40
2022-12-29T01:09:15.833Z,52.78
2022-12-29T01:12:40.946Z,52.77
2022-12-29T01:15:55.356Z,52.61
2022-12-29T01:18:59.806Z,53.09
2022-12-29T01:22:22.542Z,52.45
2022-12-29T01:25:27.589Z,51.96
2022-12-29T01:28:51.444Z,51.69
2022-12-29T01:32:13.085Z,51.32
2022-12-29T01:35:16.738Z,51.43
2022-12-29T01:38:22.841Z,51.61
2022-12-29T01:41:27.800Z,51.19
2022-12-29T01:44:57.954Z,51.76
2022-12-29T01:48:42.224Z,52.02
2022-12-29T01:52:23.173Z,51.13
2022-12-29T01:55:48.622Z,50.42
2022-12-29T01:59:03.142Z,50.34
2022-12-29T02:02:26.761Z,50.62
2022-12-29T02:05:54.556Z,50.72
2022-12-29T02:08:59.609Z,50.52
2022-12-29T02:12:04.267Z,50.68
2022-12-29T02:15:09.796Z,50.15
2022-12-29T02:18:35.645Z,50.10
2022-12-29T02:22:04.942Z,49.82
2022-12-29T02:25:33.337Z,49.43
2022-12-29T02:28:44.131Z,49.29
2022-12-29T02:32:02.838Z,49.17
2022-12-29T02:35:39.293Z,49.11
2022-12-29T02:38:58.039Z,48.86
2022-12-29T02:42:17.377Z,48.76
2022-12-29T02:46:08.479Z,48.71
2022-12-29T02:49:32.239Z,48.38
2022-12-29T02:53:23.864Z,48.09
2022-12-29T02:56:28.597Z,48.11
2022-12-29T02:59:32.669Z,47.90
2022-12-29T03:02:59.527Z,48.52
2022-12-29T03:06:08.512Z,47.99
2022-12-29T03:09:30.966Z,47.76
2022-12-29T03:12:59.148Z,47.23
2022-12-29T03:16:09.567Z,46.85
2022-12-29T03:19:19.871Z,46.63
2022-12-29T03:22:47.286Z,45.76
2022-12-29T03:25:57.894Z,45.96
2022-12-29T03:29:21.184Z,45.84
2022-12-29T03:32:30.106Z,46.29
2022-12-29T03:35:38.309Z,46.32
2022-12-29T03:38:57.701Z,45.82
2022-12-29T03:42:06.639Z,45.01
2022-12-29T03:45:12.775Z,45.03
2022-12-29T03:48:17.295Z,45.00
2022-12-29T03:51:22.522Z,45.30
2022-12-29T03:54:26.322Z,44.98
2022-12-29T03:57:32.519Z,44.88
2022-12-29T04:00:41.203Z,45.00
2022-12-29T04:03:44.625Z,45.74
2022-12-29T04:06:48.694Z,45.99
2022-12-29T04:09:52.492Z,46.47
2022-12-29T04:13:01.283Z,46.92
2022-12-29T04:16:06.935Z,46.98
2022-12-29T04:19:12.587Z,47.34
2022-12-29T04:22:16.273Z,47.78
2022-12-29T04:25:22.437Z,47.28
2022-12-29T04:28:26.042Z,46.98
2022-12-29T04:32:25.783Z,46.67
2022-12-29T04:35:49.363Z,46.05
2022-12-29T04:38:53.736Z,46.03
2022-12-29T04:42:15.318Z,45.63
2022-12-29T04:45:40.979Z,45.54
2022-12-29T04:48:52.689Z,45.76
2022-12-29T04:52:14.260Z,46.14
2022-12-29T04:55:20.102Z,45.46
2022-12-29T04:58:42.057Z,45.04
2022-12-29T05:01:45.170Z,44.53
2022-12-29T05:04:49.092Z,44.17
2022-12-29T05:07:52.918Z,44.37
2022-12-29T05:10:56.376Z,44.44
2022-12-29T05:14:18.042Z,43.98
2022-12-29T05:17:22.400Z,43.51
2022-12-29T05:20:26.084Z,44.10
2022-12-29T05:23:29.820Z,43.67
2022-12-29T05:26:38.163Z,43.39
2022-12-29T05:29:46.630Z,43.09
2022-12-29T05:32:50.967Z,44.02
2022-12-29T05:35:54.913Z,44.58
2022-12-29T05:39:00.037Z,44.87
2022-12-29T05:42:03.202Z,45.01
2022-12-29T05:45:30.383Z,44.98
2022-12-29T05:49:18.084Z,45.12
2022-12-29T05:52:39.766Z,45.49
2022-12-29T05:55:47.031Z,45.68
2022-12-29T05:58:53.769Z,45.58
2022-12-29T06:01:58.743Z,45.64
2022-12-29T06:05:02.301Z,45.38
2022-12-29T06:08:06.651Z,45.44
2022-12-29T06:11:11.134Z,45.82
2022-12-29T06:14:18.026Z,46.70
2022-12-29T06:17:22.086Z,45.84
2022-12-29T06:20:27.208Z,44.92
2022-12-29T06:23:31.077Z,44.87
2022-12-29T06:26:35.385Z,44.74
2022-12-29T06:29:41.783Z,44.83
2022-12-29T06:32:46.073Z,44.97
2022-12-29T06:36:09.511Z,45.09
2022-12-29T06:39:30.770Z,45.32
2022-12-29T06:42:52.405Z,45.10
2022-12-29T06:46:24.353Z,45.56
2022-12-29T06:49:28.454Z,45.24
2022-12-29T06:52:31.365Z,44.24
2022-12-29T06:55:53.543Z,44.12
2022-12-29T06:58:57.142Z,44.47
2022-12-29T07:02:01.049Z,44.49
2022-12-29T07:05:04.133Z,44.48
2022-12-29T07:08:07.830Z,44.11
2022-12-29T07:11:11.114Z,44.23
2022-12-29T07:14:15.368Z,44.37
2022-12-29T07:17:19.133Z,44.75
2022-12-29T07:20:26.773Z,44.19
2022-12-29T07:23:31.048Z,43.32
2022-12-29T07:27:13.418Z,43.09
2022-12-29T07:30:17.465Z,43.87
2022-12-29T07:33:20.998Z,44.49
2022-12-29T07:36:42.665Z,45.11
2022-12-29T07:39:47.072Z,46.24
2022-12-29T07:43:09.830Z,46.91
2022-12-29T07:46:55.160Z,47.68
2022-12-29T07:49:43.733Z,48.20
2022-12-29T07:52:49.474Z,48.40
2022-12-29T07:55:53.787Z,48.71
2022-12-29T07:59:16.162Z,48.49
2022-12-29T08:02:20.410Z,48.59
2022-12-29T08:05:24.421Z,49.04
2022-12-29T08:08:28.405Z,49.53
2022-12-29T08:11:32.429Z,50.00
2022-12-29T08:14:36.533Z,50.36
2022-12-29T08:17:40.485Z,51.04
2022-12-29T08:20:44.476Z,51.84
2022-12-29T08:23:50.027Z,52.60
2022-12-29T08:26:54.438Z,53.36
2022-12-29T08:29:58.424Z,53.86
2022-12-29T08:33:04.291Z,54.05
2022-12-29T08:36:29.305Z,54.71
2022-12-29T08:40:13.588Z,56.04
2022-12-29T08:43:37.856Z,56.68
2022-12-29T08:46:43.125Z,57.42
2022-12-29T08:49:47.189Z,57.44
2022-12-29T08:53:08.988Z,57.59
2022-12-29T08:56:12.969Z,57.52
2022-12-29T08:59:23.257Z,57.68
2022-12-29T09:02:27.646Z,58.59
2022-12-29T09:05:53.987Z,59.94
2022-12-29T09:09:15.975Z,60.03
2022-12-29T09:12:20.229Z,60.10
2022-12-29T09:15:24.407Z,59.33
2022-12-29T09:18:27.570Z,58.89
2022-12-29T09:21:31.299Z,58.63
2022-12-29T09:24:34.619Z,58.20
2022-12-29T09:27:57.638Z,57.94
2022-12-29T09:31:01.625Z,57.90
2022-12-29T09:34:05.380Z,58.06
2022-12-29T09:37:08.499Z,58.28
2022-12-29T09:40:33.785Z,58.69
2022-12-29T09:44:24.697Z,59.04
2022-12-29T09:47:30.846Z,59.85
2022-12-29T09:50:41.397Z,61.55
2022-12-29T09:54:11.079Z,62.09
2022-12-29T09:57:50.470Z,63.08
2022-12-29T10:01:09.918Z,63.26
2022-12-29T10:04:12.979Z,62.25
2022-12-29T10:08:02.086Z,61.79
2022-12-29T10:11:28.262Z,62.71
2022-12-29T10:14:54.414Z,62.30
2022-12-29T10:18:16.646Z,62.82
2022-12-29T10:21:41.727Z,63.87
2022-12-29T10:24:51.387Z,63.50
2022-12-29T10:27:59.187Z,65.25
2022-12-29T10:31:08.933Z,65.10
2022-12-29T10:34:18.740Z,64.94
2022-12-29T10:37:57.494Z,63.72
2022-12-29T10:41:22.734Z,63.84
2022-12-29T10:44:31.826Z,62.67
2022-12-29T10:47:40.191Z,63.75
2022-12-29T10:50:44.803Z,63.65
2022-12-29T10:53:57.158Z,63.06
2022-12-29T10:57:28.425Z,62.84
2022-12-29T11:00:31.483Z,62.78
2022-12-29T11:04:02.326Z,62.34
2022-12-29T11:07:13.292Z,63.45
2022-12-29T11:10:51.112Z,63.55
2022-12-29T11:14:03.412Z,63.46
2022-12-29T11:17:25.245Z,62.27
2022-12-29T11:20:40.005Z,61.21
2022-12-29T11:23:44.749Z,60.40
2022-12-29T11:26:48.602Z,60.92
2022-12-29T11:29:53.948Z,61.42
2022-12-29T11:32:58.813Z,62.01
2022-12-29T11:36:10.801Z,61.44
2022-12-29T11:39:38.769Z,60.45
2022-12-29T11:42:59.809Z,61.91
2022-12-29T11:46:12.514Z,62.37
2022-12-29T11:49:33.399Z,62.21
2022-12-29T11:52:41.862Z,62.61
2022-12-29T11:56:02.526Z,62.12
2022-12-29T11:59:44.066Z,61.59
2022-12-29T12:02:58.513Z,61.51
2022-12-29T12:06:08.122Z,61.53
2022-12-29T12:09:39.869Z,62.16
2022-12-29T12:12:53.481Z,61.58
2022-12-29T12:16:11.486Z,62.00
2022-12-29T12:19:34.293Z,62.77
2022-12-29T12:22:52.971Z,62.32
2022-12-29T12:26:09.811Z,62.93
2022-12-29T12:29:58.427Z,63.80
2022-12-29T12:33:42.421Z,64.41
2022-12-29T12:37:22.563Z,64.36
2022-12-29T12:40:56.034Z,65.28
2022-12-29T12:44:14.421Z,65.31
2022-12-29T12:47:48.707Z,64.91
2022-12-29T12:51:50.021Z,64.90
2022-12-29T12:54:56.343Z,64.58
2022-12-29T12:58:38.994Z,65.34
2022-12-29T13:02:05.900Z,65.77
2022-12-29T13:05:30.967Z,66.51
2022-12-29T13:09:08.629Z,64.24
2022-12-29T13:12:24.790Z,65.38
2022-12-29T13:15:50.086Z,65.51
2022-12-29T13:19:20.873Z,66.75
2022-12-29T13:22:26.862Z,67.45
2022-12-29T13:25:33.716Z,67.33
2022-12-29T13:29:22.589Z,67.00
2022-12-29T13:32:51.885Z,66.72
2022-12-29T13:36:04.043Z,66.66
2022-12-29T13:39:21.130Z,67.03
2022-12-29T13:42:25.915Z,67.26
2022-12-29T13:45:32.090Z,67.38
2022-12-29T13:48:53.539Z,67.31
2022-12-29T13:52:14.655Z,67.20
2022-12-29T13:55:21.800Z,67.08
2022-12-29T13:58:35.991Z,67.69
2022-12-29T14:01:45.119Z,68.08
2022-12-29T14:05:00.510Z,67.37
2022-12-29T14:08:07.465Z,67.30
2022-12-29T14:11:13.411Z,67.36
2022-12-29T14:14:30.927Z,67.30
2022-12-29T14:17:34.872Z,66.90
2022-12-29T14:20:58.202Z,66.66
2022-12-29T14:24:38.703Z,66.21
2022-12-29T14:27:46.424Z,65.89
2022-12-29T14:30:55.294Z,66.03
2022-12-29T14:34:08.068Z,68.31
2022-12-29T14:37:28.378Z,69.02
2022-12-29T14:40:31.641Z,69.27
2022-12-29T14:43:35.658Z,68.52
2022-12-29T14:47:14.107Z,67.96
2022-12-29T14:50:26.230Z,67.28
2022-12-29T14:54:03.635Z,67.21
2022-12-29T14:57:16.007Z,67.29
2022-12-29T15:00:29.018Z,66.75
2022-12-29T15:03:51.608Z,67.44
2022-12-29T15:06:56.479Z,66.80
2022-12-29T15:10:13.039Z,67.16
2022-12-29T15:13:20.052Z,66.96
2022-12-29T15:16:28.404Z,67.39
2022-12-29T15:19:32.472Z,67.65
2022-12-29T15:22:36.578Z,67.40
2022-12-29T15:25:51.115Z,66.59
2022-12-29T15:28:57.284Z,66.99
2022-12-29T15:32:17.912Z,67.01
2022-12-29T15:35:48.198Z,66.08
2022-12-29T15:38:52.517Z,67.07
2022-12-29T15:42:01.547Z,67.64
2022-12-29T15:45:11.851Z,66.90
2022-12-29T15:48:22.738Z,67.77
2022-12-29T15:51:52.512Z,65.83
2022-12-29T15:55:14.508Z,68.12
2022-12-29T15:58:25.166Z,66.16
2022-12-29T16:01:38.368Z,67.84
2022-12-29T16:05:09.316Z,67.13
2022-12-29T16:08:41.842Z,65.69
2022-12-29T16:11:56.993Z,67.58
2022-12-29T16:15:09.785Z,66.59
2022-12-29T16:18:39.282Z,66.28
2022-12-29T16:21:43.713Z,67.59
2022-12-29T16:24:47.410Z,67.49
2022-12-29T16:27:51.218Z,64.73
2022-12-29T16:31:06.228Z,64.72
2022-12-29T16:34:24.702Z,63.41
2022-12-29T16:37:40.526Z,62.67
2022-12-29T16:40:57.459Z,62.78
2022-12-29T16:44:22.350Z,62.51
2022-12-29T16:47:32.315Z,65.93
2022-12-29T16:50:38.525Z,65.38
2022-12-29T16:53:48.829Z,65.84
2022-12-29T16:56:54.031Z,61.98
2022-12-29T17:00:01.588Z,63.73
2022-12-29T17:03:05.873Z,62.83
2022-12-29T17:06:16.064Z,64.11
2022-12-29T17:09:29.995Z,63.77
2022-12-29T17:12:36.079Z,63.83
2022-12-29T17:15:40.018Z,64.82
2022-12-29T17:18:43.769Z,65.80
2022-12-29T17:21:47.886Z,63.62
2022-12-29T17:24:51.380Z,64.73
2022-12-29T17:27:57.177Z,65.56
2022-12-29T17:31:06.231Z,66.76
2022-12-29T17:34:12.920Z,67.18
2022-12-29T17:37:36.580Z,65.77
2022-12-29T17:40:40.562Z,66.66
2022-12-29T17:43:44.293Z,64.06
2022-12-29T17:46:49.538Z,63.43
2022-12-29T17:49:53.371Z,66.78
2022-12-29T17:53:04.182Z,66.89
2022-12-29T17:56:07.910Z,68.52
2022-12-29T17:59:14.764Z,68.99
2022-12-29T18:02:29.556Z,68.94
2022-12-29T18:05:33.259Z,68.37
2022-12-29T18:08:57.581Z,68.84
2022-12-29T18:12:00.622Z,67.20
2022-12-29T18:15:04.019Z,66.79
2022-12-29T18:18:16.387Z,68.65
2022-12-29T18:21:22.285Z,67.92
2022-12-29T18:24:26.919Z,65.67
2022-12-29T18:27:30.675Z,63.61
2022-12-29T18:30:34.495Z,64.88
2022-12-29T18:33:38.209Z,64.21
2022-12-29T18:36:41.468Z,64.24
2022-12-29T18:39:45.223Z,60.92
2022-12-29T18:42:49.088Z,60.63
2022-12-29T18:45:52.399Z,62.81
2022-12-29T18:48:56.484Z,66.80
2022-12-29T18:52:00.436Z,59.33
2022-12-29T18:55:03.785Z,58.70
2022-12-29T18:58:10.173Z,56.58
2022-12-29T19:01:32.365Z,56.12
2022-12-29T19:04:35.366Z,55.04
2022-12-29T19:07:39.308Z,55.70
2022-12-29T19:10:43.148Z,55.04
2022-12-29T19:13:47.188Z,55.78
2022-12-29T19:16:50.788Z,59.75
2022-12-29T19:19:54.150Z,55.99
2022-12-29T19:22:59.326Z,56.36
2022-12-29T19:26:02.650Z,63.49
2022-12-29T19:29:07.299Z,60.38
2022-12-29T19:32:11.345Z,61.95
2022-12-29T19:35:14.658Z,66.07
2022-12-29T19:38:19.500Z,69.60
2022-12-29T19:41:22.896Z,63.50
2022-12-29T19:44:44.600Z,64.35
2022-12-29T19:47:48.443Z,61.60
2022-12-29T19:50:51.871Z,63.66
2022-12-29T19:53:56.319Z,64.74
2022-12-29T19:56:59.300Z,66.09
2022-12-29T20:00:02.714Z,63.09
2022-12-29T20:03:33.064Z,63.66
2022-12-29T20:06:36.639Z,66.42
2022-12-29T20:09:39.651Z,56.77
2022-12-29T20:12:43.351Z,55.09
2022-12-29T20:15:46.369Z,55.20
2022-12-29T20:18:50.632Z,53.98
2022-12-29T20:21:53.983Z,53.90
2022-12-29T20:25:26.021Z,54.28
2022-12-29T20:28:20.210Z,53.63
2022-12-29T20:31:38.626Z,53.34
2022-12-29T20:34:44.099Z,54.70
2022-12-29T20:37:47.584Z,55.09
2022-12-29T20:40:51.862Z,54.15
2022-12-29T20:43:55.221Z,56.32
2022-12-29T20:46:58.269Z,54.92
2022-12-29T20:50:01.249Z,54.27
2022-12-29T20:53:05.021Z,54.35
2022-12-29T20:56:11.902Z,53.97
2022-12-29T20:59:27.413Z,54.24
2022-12-29T21:02:31.603Z,55.09
2022-12-29T21:05:38.774Z,55.45
2022-12-29T21:08:41.818Z,55.01
2022-12-29T21:11:45.503Z,55.30
2022-12-29T21:15:06.845Z,55.22
2022-12-29T21:18:09.807Z,54.33
2022-12-29T21:21:27.013Z,54.63
2022-12-29T21:24:30.719Z,55.05
2022-12-29T21:27:34.206Z,53.27
2022-12-29T21:30:38.243Z,53.82
2022-12-29T21:33:41.572Z,57.65
2022-12-29T21:36:45.531Z,61.51
2022-12-29T21:39:49.236Z,70.67
2022-12-29T21:42:53.329Z,71.43
2022-12-29T21:45:56.340Z,70.98
2022-12-29T21:48:59.350Z,70.22
2022-12-29T21:52:03.083Z,69.82
2022-12-29T21:55:09.808Z,64.78
2022-12-29T21:58:31.230Z,59.45
2022-12-29T22:01:56.553Z,68.75
2022-12-29T22:05:18.130Z,66.29
2022-12-29T22:08:39.688Z,64.87
2022-12-29T22:12:00.885Z,65.47
2022-12-29T22:15:06.003Z,65.68
2022-12-29T22:18:09.047Z,67.44
2022-12-29T22:21:12.795Z,68.61
2022-12-29T22:24:16.738Z,68.99
2022-12-29T22:27:20.497Z,68.35
2022-12-29T22:30:24.639Z,66.21
2022-12-29T22:33:28.226Z,67.65
2022-12-29T22:36:33.176Z,63.26
2022-12-29T22:39:36.525Z,64.35
2022-12-29T22:42:40.819Z,64.55
2022-12-29T22:45:44.421Z,66.58
2022-12-29T22:48:48.359Z,67.37
2022-12-29T22:51:52.206Z,65.25
2022-12-29T22:54:58.193Z,65.20
2022-12-29T22:58:05.419Z,61.83
2022-12-29T23:01:09.957Z,64.88
2022-12-29T23:04:59.176Z,64.22
2022-12-29T23:07:37.795Z,64.43
2022-12-29T23:10:41.509Z,64.60
2022-12-29T23:13:45.961Z,65.66
2022-12-29T23:16:49.774Z,65.22
2022-12-29T23:19:53.060Z,65.09
2022-12-29T23:22:56.674Z,64.94
2022-12-29T23:26:01.799Z,64.93
2022-12-29T23:29:08.079Z,64.82
2022-12-29T23:32:12.096Z,63.62
2022-12-29T23:35:15.780Z,64.31
2022-12-29T23:38:20.566Z,64.74
2022-12-29T23:41:24.883Z,65.73
2022-12-29T23:44:28.907Z,66.28
2022-12-29T23:47:31.905Z,66.57
2022-12-29T23:50:35.584Z,66.90
2022-12-29T23:53:41.848Z,66.34
2022-12-29T23:56:45.769Z,65.38
2022-12-29T23:59:48.968Z,66.62
